Detall de PIREP

Printer-friendly versionPDF version

[2015/12/26 08:11:00]
Flight IATA:CT2111
Pilot Number:041
Company ICAO:CAT
Aircraft Type:BE58/A
PAX:2
Departing Airport: LEST
Destination Airport: LEVC
Alternate Airport:LEBL
Online: VATSIM
Route:FORNO A33 CENTA
Flight Level:FL140
No Slew and time accel
No pause
Crash detect
Detect pilot in Cockpit between each 30 and 45 minutes
08:11 Zero fuel Weight: 4592 Lbs, Fuel Weight: 850 Lbs
08:11 VATSIM:LEST 260730Z 16009KT CAVOK 09/06 Q1026 NOSIG
08:11 VATSIM:LEVC 260730Z 30005KT 9999 BKN035 10/07 Q1034 NOSIG
08:11 VOICE CATALONIAN
08:13 Parking Brakes off
08:18 Take-off
08:18 Take off Weight: 5439 Lbs
08:18 Wind: 166º @ 008 Knots Heading: 165º
08:18 POS N42º 54´ 07´´ W008º 25´ 01´´
08:18 Gear Up: 111 Knots
08:18 Flaps:1 at 111 Knots
08:18 Flaps:0 at 123 Knots
08:33 Wind:267º@031 Knots Heading: 127º Ground Speed: 204 Knots Altitude 13599 ft
08:33 TOC
08:33 Fuel Weight: 786 Lb
08:48 Wind:272º@032 Knots Heading: 128º Ground Speed: 237 Knots Altitude 14491 ft
09:03 Wind:267º@030 Knots Heading: 119º Ground Speed: 231 Knots Altitude 14514 ft
09:18 Wind:270º@015 Knots Heading: 117º Ground Speed: 231 Knots Altitude 14550 ft
09:33 Wind:274º@014 Knots Heading: 118º Ground Speed: 224 Knots Altitude 14599 ft
09:40 TOD
09:40 Fuel Weight: 530 Lb
09:48 Wind:263º@021 Knots Heading: 122º Ground Speed: 222 Knots Altitude 10462 ft
10:03 Wind:275º@012 Knots Heading: 120º Ground Speed: 204 Knots Altitude 5915 ft
10:18 Wind:307º@002 Knots Heading: 078º Ground Speed: 190 Knots Altitude 3490 ft
10:24 Flaps:1 at 131 Knots
10:25 Gear Down: 102 Knots
10:25 Flaps:2 at 103 Knots
10:29 TouchDown:Rate -173 ft/min Speed: 84 Knots
10:29 Flaps:1 at 79 Knots
10:29 Flaps:0 at 71 Knots
10:29 VATSIM:LEVC 261000Z 30007KT 9999 BKN035 12/07 Q1035 NOSIG
10:29 Land
10:29 Wind:312º@003 Knots
10:29 Heading: 294º
10:29 Flight Duration: 02:11
10:29 Landing Weight: 4979 Lbs
10:29 POS N39º 29´ 08´´ W000º 28´ 19´´
10:31 Parking brakes on
10:31 Block to Block Duration: 02:18
10:31 Final Fuel: 385 Lbls
10:31 Spent Fuel: 465 Lbls
10:31 Flight Length: 459 NM
10:31 TOD Land Length: 156 NM

Exportar CSV

Powered by Drupal - Modified by Danger4k